Time;durP1;ratioP1;P1;durP2;ratioP2;P2;SDS_P1;SDS_P2;PMS_P1;PMS_P2;Temp;Humidity;BMP_temperature;BMP_pressure;BME280_temperature;BME280_humidity;BME280_pressure;Samples;Min_cycle;Max_cycle;Signal;HPM_P1;HPM_P2
2022/08/07 00:00:23;;;;;;;3.25;1.50;;;17.20;97.80;;;;;;7338658;19;110199;-78
2022/08/07 00:02:50;;;;;;;3.13;1.60;;;17.20;97.70;;;;;;7335895;19;110614;-76
2022/08/07 00:05:19;;;;;;;4.25;1.48;;;17.20;97.70;;;;;;7344309;19;110582;-77
2022/08/07 00:07:50;;;;;;;6.30;1.80;;;17.10;97.70;;;;;;7339336;19;109793;-77
2022/08/07 00:10:25;;;;;;;5.28;1.65;;;17.10;98.00;;;;;;7334857;19;111450;-76
2022/08/07 00:12:58;;;;;;;4.03;1.80;;;17.10;98.30;;;;;;7334972;19;111585;-76
2022/08/07 00:15:32;;;;;;;3.63;1.67;;;17.00;98.90;;;;;;7338032;19;109753;-77
2022/08/07 00:18:16;;;;;;;4.20;1.80;;;17.00;98.80;;;;;;7337066;19;109714;-76
2022/08/07 00:20:48;;;;;;;4.18;1.50;;;16.90;98.80;;;;;;7337915;19;111001;-76
2022/08/07 00:23:15;;;;;;;3.05;1.73;;;16.90;98.70;;;;;;7337760;19;109699;-77
2022/08/07 00:25:43;;;;;;;3.10;1.77;;;16.90;98.80;;;;;;7338351;19;109831;-77
2022/08/07 00:28:18;;;;;;;3.00;1.90;;;16.90;98.80;;;;;;7342745;19;111397;-77
2022/08/07 00:30:48;;;;;;;2.55;1.77;;;16.90;99.00;;;;;;7338444;19;111185;-75
2022/08/07 00:33:15;;;;;;;6.13;1.90;;;16.90;99.10;;;;;;7338311;19;111511;-76
2022/08/07 00:35:42;;;;;;;6.15;1.90;;;16.80;99.00;;;;;;7334597;19;109661;-76
2022/08/07 00:38:15;;;;;;;4.40;1.90;;;16.90;99.10;;;;;;7336042;19;109665;-77
2022/08/07 00:40:58;;;;;;;3.65;1.50;;;16.90;99.00;;;;;;7336497;19;111341;-76
2022/08/07 00:43:25;;;;;;;2.65;1.95;;;16.90;98.90;;;;;;7335927;19;109595;-76
2022/08/07 00:46:12;;;;;;;3.78;1.80;;;16.90;98.90;;;;;;7336517;19;109285;-76
2022/08/07 00:48:40;;;;;;;4.88;2.17;;;16.90;99.00;;;;;;7337692;19;111193;-76
2022/08/07 00:51:09;;;;;;;4.72;2.38;;;16.80;99.30;;;;;;7342364;19;109758;-77
2022/08/07 00:53:36;;;;;;;5.10;2.15;;;16.80;99.40;;;;;;7336799;19;111253;-76
2022/08/07 00:56:16;;;;;;;3.85;2.33;;;16.80;99.30;;;;;;7335158;19;109869;-76
2022/08/07 00:58:43;;;;;;;3.65;2.17;;;16.80;99.30;;;;;;7336498;19;110780;-76
2022/08/07 01:01:16;;;;;;;6.88;2.25;;;16.80;99.50;;;;;;7337217;19;109814;-75
2022/08/07 01:03:43;;;;;;;2.63;2.25;;;16.70;99.60;;;;;;7337199;19;109427;-76
2022/08/07 01:06:26;;;;;;;4.63;1.95;;;16.70;99.60;;;;;;7336637;19;109583;-76
2022/08/07 01:08:54;;;;;;;4.03;2.20;;;16.70;99.60;;;;;;7336183;19;110234;-75
2022/08/07 01:11:25;;;;;;;4.50;2.35;;;16.70;99.80;;;;;;7334951;19;110585;-76
2022/08/07 01:14:12;;;;;;;5.28;2.20;;;16.60;99.90;;;;;;7343569;19;111082;-76
2022/08/07 01:16:43;;;;;;;3.78;2.13;;;16.50;99.90;;;;;;7342874;19;109719;-76
2022/08/07 01:19:14;;;;;;;4.20;2.53;;;16.50;99.90;;;;;;7342570;19;110119;-76
2022/08/07 01:21:49;;;;;;;3.08;2.20;;;16.50;99.90;;;;;;7342518;19;111471;-77
2022/08/07 01:24:21;;;;;;;4.93;2.55;;;16.40;99.90;;;;;;7342801;19;109370;-76
2022/08/07 01:26:52;;;;;;;5.47;2.30;;;16.30;99.90;;;;;;7344123;19;111178;-77
2022/08/07 01:29:23;;;;;;;4.53;2.15;;;16.30;99.90;;;;;;7343209;19;110460;-76
2022/08/07 01:31:57;;;;;;;7.63;2.70;;;16.30;99.90;;;;;;7343168;19;109668;-76
2022/08/07 01:34:29;;;;;;;3.42;2.67;;;16.30;99.90;;;;;;7339954;19;110550;-77
2022/08/07 01:36:57;;;;;;;4.50;2.60;;;16.30;99.90;;;;;;7344504;19;110314;-76
2022/08/07 01:39:25;;;;;;;5.05;2.78;;;16.30;99.90;;;;;;7342907;19;110909;-77
2022/08/07 01:42:16;;;;;;;6.47;2.90;;;16.20;99.90;;;;;;7343028;19;111505;-77
2022/08/07 01:45:04;;;;;;;4.28;2.70;;;16.10;99.90;;;;;;7343063;19;109611;-77
2022/08/07 01:47:43;;;;;;;6.38;2.83;;;16.00;99.90;;;;;;7343034;19;109643;-77
2022/08/07 01:50:31;;;;;;;4.15;2.55;;;16.00;99.90;;;;;;7342454;19;113053;-76
2022/08/07 01:53:00;;;;;;;3.92;2.88;;;16.10;99.90;;;;;;7342986;19;110497;-76
2022/08/07 01:55:46;;;;;;;6.72;2.70;;;16.10;99.90;;;;;;7341315;19;109936;-77
2022/08/07 01:58:18;;;;;;;6.00;2.67;;;16.10;99.90;;;;;;7346391;19;110251;-76
2022/08/07 02:01:01;;;;;;;3.33;3.03;;;16.10;99.90;;;;;;7343266;19;113644;-77
2022/08/07 02:04:10;;;;;;;3.88;2.90;;;16.10;99.90;;;;;;7339412;19;112161;-77
2022/08/07 02:06:39;;;;;;;3.83;2.80;;;16.10;99.90;;;;;;7339925;19;109870;-76
2022/08/07 02:09:11;;;;;;;4.53;3.25;;;16.10;99.90;;;;;;7340473;19;109725;-76
2022/08/07 02:12:15;;;;;;;5.53;3.15;;;16.10;99.90;;;;;;7342006;19;110593;-76
2022/08/07 02:14:47;;;;;;;4.30;3.08;;;16.10;99.90;;;;;;7340085;19;109725;-78
2022/08/07 02:17:16;;;;;;;4.78;3.35;;;16.10;99.90;;;;;;7340651;19;110418;-77
2022/08/07 02:19:55;;;;;;;4.78;3.40;;;16.00;99.90;;;;;;7339132;19;111283;-77
2022/08/07 02:22:35;;;;;;;3.85;3.20;;;15.90;99.90;;;;;;7345907;19;109487;-77
2022/08/07 02:25:09;;;;;;;6.13;3.55;;;16.00;99.90;;;;;;7339202;19;110201;-77
2022/08/07 02:27:44;;;;;;;4.72;3.95;;;16.00;99.90;;;;;;7338899;19;109599;-77
2022/08/07 02:30:19;;;;;;;6.22;4.05;;;15.90;99.90;;;;;;7341183;19;109560;-76
2022/08/07 02:32:48;;;;;;;5.18;3.67;;;15.90;99.90;;;;;;7341335;19;111514;-76
2022/08/07 02:35:38;;;;;;;6.88;3.80;;;15.90;99.90;;;;;;7337410;19;109218;-76
2022/08/07 02:38:32;;;;;;;4.28;3.30;;;15.90;99.90;;;;;;7338954;19;112273;-77
2022/08/07 02:41:01;;;;;;;4.80;3.95;;;15.90;99.90;;;;;;7340550;19;111080;-76
2022/08/07 02:43:31;;;;;;;5.03;4.20;;;15.90;99.90;;;;;;7340546;19;110911;-77
2022/08/07 02:45:59;;;;;;;4.65;4.05;;;15.90;99.90;;;;;;7346051;19;109775;-76
2022/08/07 02:48:29;;;;;;;5.28;3.60;;;15.80;99.90;;;;;;7338156;19;109465;-77
2022/08/07 02:51:03;;;;;;;5.05;4.03;;;15.80;99.90;;;;;;7340640;19;110389;-76
2022/08/07 02:53:34;;;;;;;6.18;4.03;;;15.80;99.90;;;;;;7339541;19;111283;-77
2022/08/07 02:56:07;;;;;;;6.35;3.97;;;15.80;99.90;;;;;;7340200;19;109798;-76
2022/08/07 02:58:49;;;;;;;5.78;4.20;;;15.80;99.90;;;;;;7339876;19;110161;-77
2022/08/07 03:01:18;;;;;;;7.50;4.20;;;15.70;99.90;;;;;;7340323;19;110978;-77
2022/08/07 03:04:04;;;;;;;4.93;3.80;;;15.70;99.90;;;;;;7340762;19;109722;-78
2022/08/07 03:06:35;;;;;;;5.50;4.28;;;15.70;99.90;;;;;;7340672;19;109789;-77
2022/08/07 03:09:06;;;;;;;9.68;5.50;;;15.70;99.90;;;;;;7345849;19;112185;-76
2022/08/07 03:11:38;;;;;;;6.30;4.93;;;15.70;99.90;;;;;;7340837;19;110392;-77
2022/08/07 03:14:24;;;;;;;6.90;4.43;;;15.60;99.90;;;;;;7340706;19;110789;-77
2022/08/07 03:16:54;;;;;;;6.65;4.82;;;15.50;99.90;;;;;;7338215;19;109618;-77
2022/08/07 03:19:23;;;;;;;6.43;5.07;;;15.40;99.90;;;;;;7338554;19;111335;-77
2022/08/07 03:21:55;;;;;;;7.47;4.50;;;15.40;99.90;;;;;;7340089;19;111393;-77
2022/08/07 03:24:24;;;;;;;6.18;4.78;;;15.40;99.90;;;;;;7339907;19;109430;-77
2022/08/07 03:26:57;;;;;;;5.45;4.47;;;15.40;99.90;;;;;;7339868;19;109883;-76
2022/08/07 03:29:37;;;;;;;6.60;4.78;;;15.50;99.90;;;;;;7339652;19;113312;-77
2022/08/07 03:32:12;;;;;;;6.03;4.50;;;15.50;99.90;;;;;;7343556;19;109414;-77
2022/08/07 03:34:43;;;;;;;7.57;4.97;;;15.50;99.90;;;;;;7336204;19;110994;-77
2022/08/07 03:37:30;;;;;;;7.30;5.23;;;15.50;99.90;;;;;;7339647;19;109461;-77
2022/08/07 03:39:58;;;;;;;7.05;5.25;;;15.30;99.90;;;;;;7339899;19;110616;-77
2022/08/07 03:42:42;;;;;;;14.40;5.60;;;15.10;99.90;;;;;;7339607;19;110195;-77
2022/08/07 03:45:11;;;;;;;7.80;4.93;;;15.00;99.90;;;;;;7337099;19;109409;-77
2022/08/07 03:47:57;;;;;;;7.15;5.30;;;15.00;99.90;;;;;;7338893;19;109537;-77
2022/08/07 03:50:25;;;;;;;6.20;5.28;;;14.90;99.90;;;;;;7339465;19;111044;-77
2022/08/07 03:52:57;;;;;;;8.48;4.75;;;14.90;99.90;;;;;;7339498;19;109550;-76
2022/08/07 03:55:27;;;;;;;8.10;5.10;;;14.90;99.90;;;;;;7342981;19;110522;-77
2022/08/07 03:58:15;;;;;;;5.40;4.90;;;14.80;99.90;;;;;;7335542;19;110036;-76
2022/08/07 04:01:03;;;;;;;7.25;5.50;;;14.80;99.90;;;;;;7338566;19;111233;-77
2022/08/07 04:03:37;;;;;;;5.97;5.47;;;14.80;99.90;;;;;;7339847;19;111529;-77
2022/08/07 04:06:21;;;;;;;6.88;6.05;;;14.80;99.90;;;;;;7337628;19;109594;-77
2022/08/07 04:09:04;;;;;;;7.55;6.22;;;14.80;99.90;;;;;;7338874;19;110356;-75
2022/08/07 04:11:35;;;;;;;7.88;5.65;;;14.80;99.90;;;;;;7335906;19;113172;-76
2022/08/07 04:14:23;;;;;;;;;;;14.80;99.90;;;;;;7338741;19;109341;-77
2022/08/07 04:17:06;;;;;;;8.05;5.47;;;14.80;99.90;;;;;;7347640;19;110758;-77
2022/08/07 04:19:49;;;;;;;6.75;5.03;;;14.70;99.90;;;;;;7342100;19;109080;-76
2022/08/07 04:22:24;;;;;;;7.57;5.80;;;14.80;99.90;;;;;;7340892;19;109933;-76
2022/08/07 04:24:57;;;;;;;10.55;5.82;;;14.80;99.90;;;;;;7340787;19;111289;-75
2022/08/07 04:27:27;;;;;;;6.88;5.43;;;14.80;99.90;;;;;;7342139;19;109114;-75
2022/08/07 04:30:01;;;;;;;9.40;6.20;;;14.80;99.90;;;;;;7340716;19;109608;-76
2022/08/07 04:32:36;;;;;;;6.47;5.85;;;14.90;99.90;;;;;;7340105;19;110301;-77
2022/08/07 04:35:05;;;;;;;7.20;6.13;;;14.90;99.90;;;;;;7336420;19;109553;-78
2022/08/07 04:37:37;;;;;;;7.50;6.50;;;14.90;99.90;;;;;;7332824;19;109961;-77
2022/08/07 04:40:25;;;;;;;10.52;6.53;;;14.90;99.90;;;;;;7341815;19;113331;-78
2022/08/07 04:42:57;;;;;;;8.23;7.25;;;14.90;99.90;;;;;;7336607;19;109523;-79
2022/08/07 04:45:54;;;;;;;10.38;6.28;;;14.80;99.90;;;;;;7337162;19;111221;-77
2022/08/07 04:48:40;;;;;;;8.25;7.32;;;14.90;99.90;;;;;;7333811;19;109558;-83
2022/08/07 04:51:36;;;;;;;9.82;7.20;;;14.90;99.90;;;;;;7341974;19;109619;-76
2022/08/07 04:54:30;;;;;;;12.68;7.60;;;15.00;99.90;;;;;;7339231;19;110640;-76
2022/08/07 04:57:14;;;;;;;11.85;7.75;;;15.00;99.90;;;;;;7341312;19;109317;-79
2022/08/07 05:00:06;;;;;;;8.80;7.35;;;14.90;99.90;;;;;;7341880;19;109345;-78
2022/08/07 05:03:17;;;;;;;8.43;7.15;;;14.90;99.90;;;;;;7342118;19;111239;-77
2022/08/07 05:06:12;;;;;;;8.30;7.07;;;15.00;99.90;;;;;;7347667;19;110752;-77
2022/08/07 05:08:56;;;;;;;10.00;7.93;;;15.00;99.90;;;;;;7342227;19;111213;-77
2022/08/07 05:11:32;;;;;;;8.32;7.32;;;15.00;99.90;;;;;;7339765;19;109584;-77
2022/08/07 05:14:29;;;;;;;11.63;7.07;;;15.00;99.90;;;;;;7341022;19;109338;-77
2022/08/07 05:17:19;;;;;;;11.95;7.82;;;15.00;99.90;;;;;;7340462;19;113958;-80
2022/08/07 05:20:08;;;;;;;7.80;7.00;;;15.00;99.90;;;;;;7339995;19;109422;-78
2022/08/07 05:22:37;;;;;;;8.15;7.35;;;15.00;99.90;;;;;;7341147;19;112107;-77
2022/08/07 05:25:08;;;;;;;8.27;6.40;;;15.10;99.90;;;;;;7340703;19;110987;-77
2022/08/07 05:27:53;;;;;;;10.20;6.65;;;15.10;99.90;;;;;;7340591;19;110597;-77
2022/08/07 05:30:41;;;;;;;;;;;15.10;99.90;;;;;;7345888;19;112068;-78
2022/08/07 05:33:08;;;;;;;;;;;15.10;99.90;;;;;;7343382;19;109305;-78
2022/08/07 05:35:35;;;;;;;13.45;6.65;;;15.10;99.90;;;;;;7191687;19;2930827;-79
2022/08/07 05:38:09;;;;;;;8.82;6.60;;;15.20;99.90;;;;;;7342766;19;113490;-78
2022/08/07 05:40:37;;;;;;;10.18;6.80;;;15.30;99.90;;;;;;7342013;19;110840;-77
2022/08/07 05:43:18;;;;;;;8.88;6.72;;;15.50;99.90;;;;;;7342521;19;110034;-78
2022/08/07 05:46:05;;;;;;;7.03;5.78;;;15.60;99.90;;;;;;7342597;19;112594;-77
2022/08/07 05:48:33;;;;;;;8.32;6.40;;;15.60;99.90;;;;;;7341661;19;110955;-76
2022/08/07 05:51:01;;;;;;;7.72;6.18;;;15.80;99.90;;;;;;7340095;19;109982;-77
2022/08/07 05:53:29;;;;;;;7.43;5.70;;;15.90;99.90;;;;;;7345553;19;110495;-77
2022/08/07 05:56:18;;;;;;;7.20;5.78;;;16.00;99.90;;;;;;7341357;19;113866;-77
2022/08/07 05:58:57;;;;;;;7.55;5.10;;;16.10;99.90;;;;;;7341062;19;112675;-78
2022/08/07 06:01:26;;;;;;;9.10;5.80;;;16.20;99.90;;;;;;7337942;19;109944;-79
2022/08/07 06:04:03;;;;;;;8.80;5.65;;;16.30;99.90;;;;;;7340245;19;111498;-78
2022/08/07 06:06:33;;;;;;;6.72;5.03;;;16.30;99.90;;;;;;7341791;19;110243;-77
2022/08/07 06:09:01;;;;;;;8.30;5.63;;;16.50;99.90;;;;;;7339924;19;110065;-80
2022/08/07 06:11:32;;;;;;;7.50;5.30;;;16.60;99.90;;;;;;7341572;19;110959;-77
2022/08/07 06:14:00;;;;;;;6.03;4.97;;;16.60;99.90;;;;;;7341197;19;112475;-78
2022/08/07 06:16:47;;;;;;;6.97;5.15;;;16.70;99.90;;;;;;7341351;19;110548;-83
2022/08/07 06:19:21;;;;;;;9.45;5.38;;;16.70;99.90;;;;;;7337852;19;111600;-83
2022/08/07 06:22:10;;;;;;;6.18;4.47;;;16.80;99.90;;;;;;7340424;19;110667;-83
2022/08/07 06:24:50;;;;;;;7.53;5.47;;;16.90;99.90;;;;;;7339543;19;110872;-84
2022/08/07 06:27:24;;;;;;;6.80;5.03;;;17.00;99.90;;;;;;7339815;19;110637;-84
2022/08/07 06:30:11;;;;;;;6.10;4.78;;;17.00;99.90;;;;;;7339441;19;109516;-84
2022/08/07 06:32:59;;;;;;;9.45;5.30;;;17.10;99.90;;;;;;7335237;19;112048;-77
2022/08/07 06:35:27;;;;;;;8.82;4.78;;;17.20;99.90;;;;;;7339294;19;111855;-77
2022/08/07 06:38:11;;;;;;;8.27;4.97;;;17.30;99.90;;;;;;7346358;19;110159;-78
2022/08/07 06:40:51;;;;;;;5.65;5.07;;;17.40;99.90;;;;;;7341707;19;110834;-78
2022/08/07 06:43:22;;;;;;;5.15;4.70;;;17.50;99.90;;;;;;7342060;19;109295;-77
2022/08/07 06:45:49;;;;;;;7.13;4.85;;;17.70;99.90;;;;;;7342106;19;111481;-77
2022/08/07 06:48:17;;;;;;;8.65;5.40;;;17.90;99.90;;;;;;7342003;19;111179;-80
2022/08/07 06:50:57;;;;;;;6.32;5.15;;;18.00;99.90;;;;;;7340701;19;109403;-80
2022/08/07 06:53:35;;;;;;;6.40;4.70;;;18.10;99.90;;;;;;7340784;19;109539;-78
2022/08/07 06:56:38;;;;;;;6.07;4.72;;;18.20;99.90;;;;;;7339510;19;112282;-77
2022/08/07 06:59:21;;;;;;;6.93;4.82;;;18.20;99.90;;;;;;7339281;19;109837;-81
2022/08/07 07:02:21;;;;;;;5.47;4.70;;;18.40;99.90;;;;;;7346219;19;112084;-78
2022/08/07 07:05:09;;;;;;;5.70;4.63;;;18.50;99.90;;;;;;7341415;19;110558;-78
2022/08/07 07:07:39;;;;;;;6.15;4.95;;;18.60;99.90;;;;;;7340966;19;110246;-80
2022/08/07 07:10:33;;;;;;;7.13;4.63;;;18.70;99.90;;;;;;7339324;19;112365;-77
2022/08/07 07:13:17;;;;;;;5.45;4.38;;;18.60;99.90;;;;;;7337935;19;109371;-78
2022/08/07 07:16:12;;;;;;;6.45;4.78;;;18.50;99.90;;;;;;7339910;19;111685;-77
2022/08/07 07:18:54;;;;;;;6.63;4.80;;;18.60;99.90;;;;;;7338806;19;110626;-77
2022/08/07 07:21:26;;;;;;;5.37;4.03;;;18.70;99.90;;;;;;7339949;19;109255;-77
2022/08/07 07:24:15;;;;;;;4.97;4.25;;;18.80;99.90;;;;;;7339563;19;111766;-77
2022/08/07 07:26:45;;;;;;;11.80;4.60;;;18.90;99.90;;;;;;7342746;19;110686;-79
2022/08/07 07:32:57;;;;;;;5.50;4.05;;;19.10;99.90;;;;;;7335669;19;110292;-79
2022/08/07 07:35:27;;;;;;;6.35;4.28;;;19.20;99.90;;;;;;7340038;19;109536;-78
2022/08/07 07:38:01;;;;;;;10.70;4.50;;;19.30;99.90;;;;;;7339458;19;110457;-78
2022/08/07 07:40:32;;;;;;;6.38;4.22;;;19.30;99.70;;;;;;7337383;19;110093;-77
2022/08/07 07:43:03;;;;;;;4.30;3.70;;;19.40;99.90;;;;;;7340333;19;110068;-76
2022/08/07 07:45:46;;;;;;;7.35;4.07;;;19.60;99.50;;;;;;7338124;19;110622;-76
2022/08/07 07:48:34;;;;;;;4.88;3.78;;;19.80;99.00;;;;;;7337221;19;113275;-77
2022/08/07 07:51:05;;;;;;;6.13;4.18;;;19.70;98.40;;;;;;7344295;19;109373;-78
2022/08/07 07:53:41;;;;;;;6.82;3.65;;;19.70;98.60;;;;;;7338077;19;110507;-76
2022/08/07 07:56:20;;;;;;;7.20;4.47;;;19.80;98.60;;;;;;7338549;19;110092;-77
2022/08/07 07:59:00;;;;;;;9.38;4.07;;;19.90;98.60;;;;;;7338052;19;111556;-77
2022/08/07 08:01:30;;;;;;;5.28;4.03;;;20.10;98.30;;;;;;7338201;19;110500;-75
2022/08/07 08:04:18;;;;;;;11.57;4.15;;;20.30;98.00;;;;;;7335781;19;110299;-78
2022/08/07 08:06:52;;;;;;;7.15;3.80;;;20.40;98.00;;;;;;7338289;19;110600;-75
2022/08/07 08:09:23;;;;;;;12.35;3.45;;;20.50;97.40;;;;;;7336817;19;110192;-75
2022/08/07 08:11:56;;;;;;;6.43;3.60;;;20.50;97.70;;;;;;7338315;19;109461;-78
2022/08/07 08:14:30;;;;;;;6.68;3.78;;;20.60;96.90;;;;;;7343391;19;110642;-76
2022/08/07 08:17:01;;;;;;;3.92;3.50;;;20.70;96.80;;;;;;7338508;19;110041;-76
2022/08/07 08:19:51;;;;;;;7.20;3.53;;;20.80;96.70;;;;;;7336634;19;111527;-77
2022/08/07 08:28:23;;;;;;;4.90;3.53;;;21.10;96.00;;;;;;7343681;19;110755;-77
2022/08/07 08:31:09;;;;;;;4.03;3.00;;;21.10;95.80;;;;;;7343579;19;110141;-82
2022/08/07 08:33:42;;;;;;;5.97;3.22;;;21.30;95.70;;;;;;7345009;19;109862;-76
2022/08/07 08:36:25;;;;;;;4.32;2.88;;;21.40;95.10;;;;;;7350338;19;110594;-78
2022/08/07 08:38:59;;;;;;;4.50;2.92;;;21.50;95.20;;;;;;7343640;19;109533;-77
2022/08/07 08:41:56;;;;;;;5.47;2.75;;;21.50;94.80;;;;;;7344311;19;110498;-77
2022/08/07 08:44:34;;;;;;;4.97;3.10;;;21.50;94.80;;;;;;7342760;19;112047;-77
2022/08/07 08:47:35;;;;;;;4.95;2.30;;;21.50;94.20;;;;;;7342644;19;109433;-78
2022/08/07 08:50:27;;;;;;;4.03;2.40;;;21.60;94.30;;;;;;7344331;19;109647;-77
2022/08/07 08:53:08;;;;;;;6.35;2.38;;;21.90;94.40;;;;;;7343864;19;112012;-76
2022/08/07 08:55:43;;;;;;;3.50;2.33;;;22.00;93.20;;;;;;7343140;19;109434;-77
2022/08/07 08:58:23;;;;;;;;;;;22.00;93.00;;;;;;7344171;19;110529;-76
2022/08/07 09:01:03;;;;;;;5.50;2.78;;;22.00;92.90;;;;;;7352940;19;111574;-77
2022/08/07 09:03:51;;;;;;;8.17;3.07;;;22.10;92.70;;;;;;7344041;19;110444;-76
2022/08/07 09:06:36;;;;;;;4.82;2.63;;;22.20;92.30;;;;;;7342294;19;110713;-78
2022/08/07 09:09:18;;;;;;;4.20;2.50;;;22.20;92.70;;;;;;7344023;19;109980;-78
2022/08/07 09:12:34;;;;;;;4.93;2.35;;;22.30;92.30;;;;;;7344410;19;109762;-77
2022/08/07 09:15:30;;;;;;;5.25;2.20;;;22.20;91.60;;;;;;7343297;19;114136;-77
2022/08/07 09:19:05;;;;;;;9.55;2.85;;;22.30;92.30;;;;;;7342664;19;110784;-77
2022/08/07 09:22:19;;;;;;;5.40;2.30;;;22.40;91.90;;;;;;7337927;19;112839;-76
2022/08/07 09:25:11;;;;;;;8.43;2.42;;;22.40;92.30;;;;;;7338665;19;113661;-78
2022/08/07 09:27:49;;;;;;;4.35;2.42;;;22.60;91.90;;;;;;7345211;19;109471;-78
2022/08/07 09:30:47;;;;;;;11.18;2.10;;;22.70;91.40;;;;;;7339295;19;111228;-76
2022/08/07 09:33:57;;;;;;;3.25;2.33;;;22.70;91.10;;;;;;7337451;19;109445;-79
2022/08/07 09:36:55;;;;;;;4.70;1.90;;;22.80;90.10;;;;;;7338651;19;109986;-77
2022/08/07 09:39:54;;;;;;;3.10;2.03;;;22.90;90.80;;;;;;7335825;19;110736;-77
2022/08/07 09:42:47;;;;;;;6.45;2.10;;;23.10;89.60;;;;;;7338573;19;110669;-78
2022/08/07 09:45:46;;;;;;;4.80;2.40;;;23.20;90.70;;;;;;7338263;19;110440;-77
2022/08/07 09:49:11;;;;;;;6.45;2.38;;;23.40;90.60;;;;;;7338762;19;113912;-77
2022/08/07 09:52:35;;;;;;;3.40;2.10;;;23.50;90.10;;;;;;7339341;19;110204;-79
2022/08/07 09:55:37;;;;;;;5.53;2.20;;;23.60;89.10;;;;;;7340346;19;110971;-78
2022/08/07 09:58:42;;;;;;;5.32;2.30;;;23.70;90.00;;;;;;7337347;19;110621;-78
2022/08/07 10:01:40;;;;;;;4.88;2.20;;;23.70;87.30;;;;;;7338105;19;110461;-81
2022/08/07 10:04:24;;;;;;;4.10;2.15;;;23.60;86.30;;;;;;7337420;19;111803;-78
2022/08/07 10:07:10;;;;;;;6.55;2.05;;;23.60;86.70;;;;;;7337851;19;109697;-78
2022/08/07 10:10:06;;;;;;;3.50;1.60;;;23.60;85.30;;;;;;7337653;19;109241;-78
2022/08/07 10:13:04;;;;;;;3.92;2.35;;;23.70;86.40;;;;;;7338152;19;111204;-79
2022/08/07 10:16:12;;;;;;;3.65;2.20;;;23.70;85.00;;;;;;7339144;19;109626;-79
2022/08/07 10:18:45;;;;;;;3.42;1.88;;;23.70;86.00;;;;;;7339236;19;110316;-79
2022/08/07 10:21:41;;;;;;;2.92;2.03;;;23.90;87.20;;;;;;7344994;19;111461;-78
2022/08/07 10:24:34;;;;;;;2.88;1.90;;;24.10;87.40;;;;;;7338003;19;113658;-76
2022/08/07 10:27:11;;;;;;;4.75;2.00;;;24.30;84.40;;;;;;7341762;19;111144;-78
2022/08/07 10:30:05;;;;;;;2.47;1.90;;;24.30;82.80;;;;;;7339399;19;111069;-77
2022/08/07 10:32:45;;;;;;;2.75;1.40;;;24.30;80.60;;;;;;7339187;19;109641;-80
2022/08/07 10:35:33;;;;;;;4.93;2.08;;;24.30;81.80;;;;;;7341510;19;111106;-79
2022/08/07 10:38:53;;;;;;;5.20;2.00;;;24.30;81.00;;;;;;7342203;19;109434;-78
2022/08/07 10:41:30;;;;;;;11.07;2.60;;;24.30;80.20;;;;;;7337514;19;110682;-78
2022/08/07 10:44:38;;;;;;;19.08;2.83;;;24.20;80.90;;;;;;7338083;19;112789;-78
2022/08/07 10:47:57;;;;;;;2.75;1.52;;;24.30;80.60;;;;;;7342599;19;109450;-79
2022/08/07 10:50:50;;;;;;;3.65;1.67;;;24.30;83.00;;;;;;7340989;19;110426;-79
2022/08/07 10:53:53;;;;;;;3.63;1.83;;;24.70;83.50;;;;;;7341785;19;110110;-79
2022/08/07 10:56:50;;;;;;;3.93;1.50;;;24.80;78.00;;;;;;7337319;19;110956;-79
2022/08/07 10:59:33;;;;;;;3.10;1.70;;;24.70;78.90;;;;;;7340214;19;110856;-78
2022/08/07 11:02:46;;;;;;;2.17;1.30;;;24.70;78.40;;;;;;7340771;19;110987;-79
2022/08/07 11:05:39;;;;;;;4.50;1.67;;;24.70;76.80;;;;;;7338280;19;109464;-79
2022/08/07 11:08:28;;;;;;;2.65;2.17;;;24.80;77.60;;;;;;7341065;19;111264;-79
2022/08/07 11:11:00;;;;;;;3.63;1.35;;;25.00;77.10;;;;;;7346121;19;109293;-78
2022/08/07 11:13:33;;;;;;;8.75;1.70;;;25.00;77.30;;;;;;7339762;19;112015;-78
2022/08/07 11:16:30;;;;;;;4.93;1.90;;;25.10;77.70;;;;;;7340072;19;109432;-77
2022/08/07 11:19:18;;;;;;;2.67;1.73;;;25.10;76.80;;;;;;7339414;19;110518;-79
2022/08/07 11:22:09;;;;;;;4.05;1.80;;;25.10;75.30;;;;;;7340777;19;111165;-79
2022/08/07 11:25:08;;;;;;;4.05;1.48;;;25.20;75.90;;;;;;7340154;19;109378;-80
2022/08/07 11:28:07;;;;;;;2.42;1.40;;;25.40;77.90;;;;;;7339499;19;109936;-77
2022/08/07 11:30:50;;;;;;;4.90;1.70;;;25.60;73.20;;;;;;7339883;19;111399;-79
2022/08/07 11:33:22;;;;;;;;;;;25.60;75.90;;;;;;7340124;19;109958;-78
2022/08/07 11:36:16;;;;;;;2.63;1.30;;;25.60;75.50;;;;;;7348569;19;112798;-78
2022/08/07 11:39:23;;;;;;;9.45;1.70;;;25.70;73.50;;;;;;7339887;19;109730;-79
2022/08/07 11:42:39;;;;;;;4.28;1.60;;;25.90;71.50;;;;;;7336602;19;109907;-79
2022/08/07 11:45:11;;;;;;;3.13;1.50;;;25.80;70.90;;;;;;7337204;19;111209;-80
2022/08/07 11:47:59;;;;;;;4.93;1.50;;;25.90;70.40;;;;;;7339960;19;109658;-77
2022/08/07 11:51:03;;;;;;;2.97;1.60;;;25.90;69.20;;;;;;7336791;19;109746;-78
2022/08/07 11:53:49;;;;;;;2.20;1.70;;;26.00;68.00;;;;;;7339338;19;114296;-78
2022/08/07 11:56:54;;;;;;;2.28;1.60;;;26.00;70.30;;;;;;7339390;19;109157;-78
2022/08/07 11:59:54;;;;;;;1.80;1.38;;;26.20;68.70;;;;;;7335341;19;112647;-79
2022/08/07 12:03:21;;;;;;;3.42;1.30;;;26.10;70.60;;;;;;7345128;19;113698;-81
2022/08/07 12:06:30;;;;;;;2.90;1.08;;;26.20;66.40;;;;;;7337894;19;113926;-76
2022/08/07 12:09:23;;;;;;;1.92;1.08;;;26.30;67.70;;;;;;7337677;19;112640;-77
2022/08/07 12:11:58;;;;;;;2.17;1.38;;;26.50;66.90;;;;;;7339037;19;109523;-77
2022/08/07 12:15:02;;;;;;;2.08;1.20;;;26.70;67.60;;;;;;7337648;19;110004;-76
2022/08/07 12:17:38;;;;;;;3.13;1.30;;;26.90;67.00;;;;;;7335655;19;110052;-78
2022/08/07 12:20:26;;;;;;;5.88;1.20;;;27.00;66.40;;;;;;7337358;19;111591;-78
2022/08/07 12:23:28;;;;;;;4.05;1.38;;;27.10;64.80;;;;;;7336551;19;110504;-79
2022/08/07 12:26:20;;;;;;;;;;;27.30;65.00;;;;;;7335201;19;112934;-78
2022/08/07 12:29:12;;;;;;;4.43;1.10;;;27.30;63.60;;;;;;7345486;19;109650;-79
2022/08/07 12:32:03;;;;;;;1.90;1.23;;;27.30;64.60;;;;;;7336774;19;110668;-78
2022/08/07 12:34:43;;;;;;;6.88;1.40;;;27.40;65.00;;;;;;7338657;19;109949;-79
2022/08/07 12:37:20;;;;;;;2.15;1.27;;;27.50;62.00;;;;;;7336118;19;109781;-79
2022/08/07 12:39:51;;;;;;;5.45;1.10;;;27.50;63.00;;;;;;7337009;19;110095;-78
2022/08/07 12:42:23;;;;;;;2.05;1.00;;;27.60;64.50;;;;;;7336632;19;109375;-76
2022/08/07 12:44:57;;;;;;;5.57;1.40;;;27.80;62.50;;;;;;7337695;19;110591;-78
2022/08/07 12:48:01;;;;;;;2.08;1.08;;;27.80;61.90;;;;;;7337483;19;111143;-76
2022/08/07 12:50:44;;;;;;;2.40;1.10;;;28.00;64.60;;;;;;7338821;19;109869;-77
2022/08/07 12:53:39;;;;;;;6.60;1.10;;;28.20;64.10;;;;;;7343037;19;110458;-76
2022/08/07 12:56:33;;;;;;;3.08;1.10;;;28.30;61.80;;;;;;7337520;19;110620;-79
2022/08/07 12:59:04;;;;;;;1.85;1.23;;;28.10;60.00;;;;;;7336281;19;111476;-76
2022/08/07 13:02:01;;;;;;;3.63;1.00;;;28.10;60.20;;;;;;7335360;19;111171;-83
2022/08/07 13:05:12;;;;;;;4.30;1.10;;;28.10;60.40;;;;;;7336302;19;109510;-82
2022/08/07 13:08:20;;;;;;;2.45;1.08;;;28.10;60.00;;;;;;7337422;19;112632;-81
2022/08/07 13:11:09;;;;;;;6.22;1.08;;;28.10;58.00;;;;;;7339754;19;110612;-77
2022/08/07 13:14:08;;;;;;;4.55;0.90;;;27.90;59.20;;;;;;7343655;19;109203;-72
2022/08/07 13:16:43;;;;;;;8.93;1.20;;;28.00;58.90;;;;;;7341450;19;109989;-82
2022/08/07 13:19:40;;;;;;;3.70;1.33;;;28.00;58.80;;;;;;7346328;19;110139;-73
2022/08/07 13:22:30;;;;;;;4.45;1.25;;;28.00;59.10;;;;;;7343911;19;110441;-75
2022/08/07 13:25:07;;;;;;;1.20;1.08;;;28.40;59.70;;;;;;7343441;19;110580;-83
2022/08/07 13:27:42;;;;;;;2.22;1.10;;;28.70;59.80;;;;;;7343942;19;109685;-83
2022/08/07 13:30:32;;;;;;;3.67;1.48;;;29.10;60.20;;;;;;7343352;19;111009;-84
2022/08/07 13:33:34;;;;;;;2.55;1.15;;;29.00;58.80;;;;;;7343572;19;111269;-83
2022/08/07 13:36:29;;;;;;;2.35;1.00;;;29.00;57.70;;;;;;7343247;19;111122;-82
2022/08/07 13:39:25;;;;;;;1.33;1.00;;;29.00;57.90;;;;;;7343020;19;111488;-83
2022/08/07 13:42:13;;;;;;;2.97;1.10;;;29.00;57.40;;;;;;7344888;19;109987;-83
2022/08/07 13:44:53;;;;;;;1.83;1.02;;;29.10;58.80;;;;;;7343314;19;113492;-85
2022/08/07 13:47:41;;;;;;;2.35;1.10;;;29.40;58.60;;;;;;7342808;19;113757;-84
2022/08/07 13:50:29;;;;;;;1.63;1.08;;;29.40;56.60;;;;;;7343210;19;110372;-82
2022/08/07 13:53:18;;;;;;;1.55;0.98;;;29.30;56.60;;;;;;7343271;19;110203;-84
2022/08/07 13:55:51;;;;;;;13.98;1.55;;;29.10;56.10;;;;;;7338923;19;110217;-83
2022/08/07 14:01:25;;;;;;;3.72;1.00;;;28.90;55.10;;;;;;7341445;19;110371;-83
2022/08/07 14:03:54;;;;;;;3.47;0.95;;;28.80;56.50;;;;;;7342345;19;111980;-84
2022/08/07 14:06:36;;;;;;;4.65;1.00;;;29.10;55.90;;;;;;7348022;19;110153;-84
2022/08/07 14:09:06;;;;;;;6.47;1.10;;;29.20;57.20;;;;;;7342018;19;111856;-85